Time,TemperatureF,DewpointF,PressureIn,WindDirection,WindDirectionDegrees,WindSpeedMPH,WindSpeedGustMPH,Humidity,HourlyPrecipIn,Conditions,Clouds,dailyrainin,SolarRadiationWatts/m^2,SoftwareType,DateUTC
2013-04-12 00:00:00,51.2,42.1,29.88,NW,315,0.0,2.0,71,0.00,,CLR,0.00,0.00,VWS V14.01,2013-04-12 07:00:00,
2013-04-12 00:10:00,51.1,42.0,29.89,NW,315,0.0,2.0,71,0.00,,CLR,0.00,0.00,VWS V14.01,2013-04-12 07:10:00,
2013-04-12 00:20:00,50.9,41.8,29.89,NW,315,0.0,3.0,71,0.00,,CLR,0.00,0.00,VWS V14.01,2013-04-12 07:20:00,
2013-04-12 00:30:00,50.6,42.3,29.88,NW,315,0.0,3.0,73,0.00,,CLR,0.00,0.00,VWS V14.01,2013-04-12 07:30:00,
2013-04-12 00:40:00,51.0,42.3,29.89,NW,315,2.0,11.0,72,0.00,,CLR,0.00,0.00,VWS V14.01,2013-04-12 07:40:00,
2013-04-12 00:50:00,51.4,42.3,29.89,NNW,338,2.0,5.0,71,0.00,,CLR,0.00,0.00,VWS V14.01,2013-04-12 07:50:00,
2013-04-12 01:00:00,51.7,42.2,29.89,NW,315,4.0,11.0,70,0.00,,CLR,0.00,0.00,VWS V14.01,2013-04-12 08:00:00,
2013-04-12 01:10:00,51.5,42.0,29.89,NW,315,2.0,10.0,70,0.00,,CLR,0.00,0.00,VWS V14.01,2013-04-12 08:10:00,
2013-04-12 01:20:00,51.0,41.9,29.89,NW,315,0.0,3.0,71,0.00,,CLR,0.00,0.00,VWS V14.01,2013-04-12 08:20:00,
2013-04-12 01:30:00,50.1,41.8,29.88,NW,315,0.0,2.0,73,0.00,,CLR,0.00,0.00,VWS V14.01,2013-04-12 08:30:00,
2013-04-12 01:40:00,49.4,41.8,29.88,NW,315,0.0,2.0,75,0.00,,CLR,0.00,0.00,VWS V14.01,2013-04-12 08:40:00,
2013-04-12 01:50:00,49.2,41.6,29.88,NW,315,0.0,2.0,75,0.00,,CLR,0.00,0.00,VWS V14.01,2013-04-12 08:50:00,
2013-04-12 02:00:00,49.3,42.1,29.87,NW,315,1.0,5.0,76,0.00,,CLR,0.00,0.00,VWS V14.01,2013-04-12 09:00:00,
2013-04-12 02:10:00,50.1,42.5,29.87,NW,315,2.0,7.0,75,0.00,,CLR,0.00,0.00,VWS V14.01,2013-04-12 09:10:00,
2013-04-12 02:20:00,50.6,42.6,29.88,NNW,338,2.0,9.0,74,0.00,,CLR,0.00,0.00,VWS V14.01,2013-04-12 09:20:00,
2013-04-12 02:30:00,50.6,42.3,29.87,NNW,338,2.0,10.0,73,0.00,,CLR,0.00,0.00,VWS V14.01,2013-04-12 09:30:00,
2013-04-12 02:40:00,50.5,42.5,29.87,NNW,338,2.0,7.0,74,0.00,,CLR,0.00,0.00,VWS V14.01,2013-04-12 09:40:00,
2013-04-12 02:50:00,50.5,42.5,29.87,North,0,3.0,9.0,74,0.00,,CLR,0.00,0.00,VWS V14.01,2013-04-12 09:50:00,
2013-04-12 03:00:00,50.3,42.3,29.86,North,0,3.0,10.0,74,0.00,,CLR,0.00,0.00,VWS V14.01,2013-04-12 10:00:00,
2013-04-12 03:10:00,50.1,42.2,29.86,North,0,3.0,9.0,74,0.00,,CLR,0.00,0.00,VWS V14.01,2013-04-12 10:10:00,
2013-04-12 03:20:00,50.0,42.4,29.86,North,0,3.0,10.0,75,0.00,,CLR,0.00,0.00,VWS V14.01,2013-04-12 10:20:00,
2013-04-12 03:30:00,49.7,42.1,29.86,North,0,3.0,11.0,75,0.00,,CLR,0.00,0.00,VWS V14.01,2013-04-12 10:30:00,
2013-04-12 03:40:00,49.7,42.1,29.86,North,0,3.0,10.0,75,0.00,,CLR,0.00,0.00,VWS V14.01,2013-04-12 10:40:00,
2013-04-12 03:50:00,49.6,42.0,29.86,North,0,2.0,9.0,75,0.00,,CLR,0.00,0.00,VWS V14.01,2013-04-12 10:50:00,
2013-04-12 04:00:00,49.4,42.2,29.86,North,0,2.0,9.0,76,0.00,,CLR,0.00,0.00,VWS V14.01,2013-04-12 11:00:00,
2013-04-12 04:10:00,49.2,42.0,29.86,North,0,3.0,8.0,76,0.00,,CLR,0.00,0.00,VWS V14.01,2013-04-12 11:10:00,
2013-04-12 04:20:00,49.1,42.2,29.86,North,0,3.0,10.0,77,0.00,,CLR,0.00,0.00,VWS V14.01,2013-04-12 11:20:00,
2013-04-12 04:30:00,48.9,42.0,29.86,NNW,338,1.0,7.0,77,0.00,,CLR,0.00,0.00,VWS V14.01,2013-04-12 11:30:00,
2013-04-12 04:40:00,48.8,42.3,29.86,NNW,338,1.0,7.0,78,0.00,,CLR,0.00,0.00,VWS V14.01,2013-04-12 11:40:00,
2013-04-12 04:50:00,49.0,42.1,29.86,NNW,338,2.0,6.0,77,0.00,,CLR,0.00,0.00,VWS V14.01,2013-04-12 11:50:00,
2013-04-12 05:00:00,49.2,42.3,29.85,North,0,2.0,8.0,77,0.00,,CLR,0.00,0.00,VWS V14.01,2013-04-12 12:00:00,
2013-04-12 05:10:00,49.1,42.2,29.86,NW,315,1.0,7.0,77,0.00,,CLR,0.00,0.00,VWS V14.01,2013-04-12 12:10:00,
2013-04-12 05:20:00,49.2,42.3,29.86,NW,315,3.0,11.0,77,0.00,,CLR,0.00,0.00,VWS V14.01,2013-04-12 12:20:00,
2013-04-12 05:30:00,49.3,42.4,29.86,North,0,3.0,10.0,77,0.00,,CLR,0.00,0.00,VWS V14.01,2013-04-12 12:30:00,
2013-04-12 05:40:00,49.1,42.2,29.87,NNW,338,2.0,7.0,77,0.00,,CLR,0.00,0.00,VWS V14.01,2013-04-12 12:40:00,
2013-04-12 05:50:00,49.0,42.1,29.86,North,0,1.0,7.0,77,0.00,,CLR,0.00,0.00,VWS V14.01,2013-04-12 12:50:00,
2013-04-12 06:00:00,49.0,42.1,29.87,NNW,338,2.0,6.0,77,0.00,,CLR,0.00,0.00,VWS V14.01,2013-04-12 13:00:00,
2013-04-12 06:10:00,49.1,42.2,29.87,NNW,338,3.0,10.0,77,0.00,,CLR,0.00,0.00,VWS V14.01,2013-04-12 13:10:00,
2013-04-12 06:20:00,48.9,42.0,29.88,North,0,2.0,6.0,77,0.00,,CLR,0.00,0.00,VWS V14.01,2013-04-12 13:20:00,
2013-04-12 06:30:00,48.7,42.2,29.87,North,0,3.0,7.0,78,0.00,,CLR,0.00,0.00,VWS V14.01,2013-04-12 13:30:00,
2013-04-12 06:40:00,48.6,42.1,29.87,NNW,338,2.0,6.0,78,0.00,,CLR,0.00,0.00,VWS V14.01,2013-04-12 13:40:00,
2013-04-12 06:50:00,48.6,42.1,29.88,North,0,4.0,8.0,78,0.00,,CLR,0.00,8.00,VWS V14.01,2013-04-12 13:50:00,
2013-04-12 07:00:00,48.6,42.1,29.88,North,0,4.0,9.0,78,0.00,,CLR,0.00,14.00,VWS V14.01,2013-04-12 14:00:00,
2013-04-12 07:10:00,48.5,42.0,29.89,North,0,5.0,12.0,78,0.00,,CLR,0.00,20.00,VWS V14.01,2013-04-12 14:10:00,
2013-04-12 07:20:00,48.4,41.9,29.89,North,0,3.0,11.0,78,0.00,,CLR,0.00,26.00,VWS V14.01,2013-04-12 14:20:00,
2013-04-12 07:30:00,48.3,42.1,29.89,North,0,4.0,10.0,79,0.00,,CLR,0.00,31.00,VWS V14.01,2013-04-12 14:30:00,
2013-04-12 07:40:00,48.5,42.3,29.90,North,0,3.0,11.0,79,0.00,,CLR,0.00,53.00,VWS V14.01,2013-04-12 14:40:00,
2013-04-12 07:50:00,49.2,42.6,29.90,North,0,4.0,11.0,78,0.00,,CLR,0.00,160.00,VWS V14.01,2013-04-12 14:50:00,
2013-04-12 08:00:00,49.7,42.8,29.90,North,0,3.0,10.0,77,0.00,,CLR,0.00,195.00,VWS V14.01,2013-04-12 15:00:00,
2013-04-12 08:10:00,50.4,43.1,29.90,North,0,3.0,13.0,76,0.00,,CLR,0.00,230.00,VWS V14.01,2013-04-12 15:10:00,
2013-04-12 08:20:00,51.2,43.6,29.90,NNW,338,2.0,10.0,75,0.00,,CLR,0.00,265.00,VWS V14.01,2013-04-12 15:20:00,
2013-04-12 08:30:00,51.9,43.5,29.90,North,0,3.0,9.0,73,0.00,,CLR,0.00,302.00,VWS V14.01,2013-04-12 15:30:00,
2013-04-12 08:40:00,52.7,43.9,29.90,NNW,338,3.0,11.0,72,0.00,,CLR,0.00,338.00,VWS V14.01,2013-04-12 15:40:00,
2013-04-12 08:50:00,53.2,44.4,29.90,NNW,338,5.0,15.0,72,0.00,,CLR,0.00,372.00,VWS V14.01,2013-04-12 15:50:00,
2013-04-12 09:00:00,53.8,44.6,29.90,North,0,4.0,11.0,71,0.00,,CLR,0.00,408.00,VWS V14.01,2013-04-12 16:00:00,
2013-04-12 09:10:00,54.6,45.0,29.90,North,0,4.0,13.0,70,0.00,,CLR,0.00,439.00,VWS V14.01,2013-04-12 16:10:00,
2013-04-12 09:20:00,55.1,45.1,29.90,North,0,5.0,13.0,69,0.00,,CLR,0.00,477.00,VWS V14.01,2013-04-12 16:20:00,
2013-04-12 09:30:00,56.2,45.8,29.90,North,0,3.0,11.0,68,0.00,,CLR,0.00,510.00,VWS V14.01,2013-04-12 16:30:00,
2013-04-12 09:40:00,56.8,45.6,29.90,North,0,5.0,12.0,66,0.00,,CLR,0.00,542.00,VWS V14.01,2013-04-12 16:40:00,
2013-04-12 09:50:00,57.6,45.5,29.90,North,0,4.0,10.0,64,0.00,,CLR,0.00,574.00,VWS V14.01,2013-04-12 16:50:00,
2013-04-12 10:00:00,58.2,46.5,29.90,North,0,5.0,11.0,65,0.00,,CLR,0.00,601.00,VWS V14.01,2013-04-12 17:00:00,
2013-04-12 10:10:00,59.0,46.8,29.90,NNW,338,3.0,10.0,64,0.00,,CLR,0.00,627.00,VWS V14.01,2013-04-12 17:10:00,
2013-04-12 10:20:00,59.8,47.2,29.90,North,0,4.0,14.0,63,0.00,,CLR,0.00,658.00,VWS V14.01,2013-04-12 17:20:00,
2013-04-12 10:30:00,60.8,47.3,29.90,North,0,3.0,10.0,61,0.00,,CLR,0.00,681.00,VWS V14.01,2013-04-12 17:30:00,
2013-04-12 10:40:00,61.6,47.6,29.90,NNW,338,4.0,10.0,60,0.00,,CLR,0.00,709.00,VWS V14.01,2013-04-12 17:40:00,
2013-04-12 10:50:00,62.6,48.5,29.90,North,0,4.0,10.0,60,0.00,,CLR,0.00,725.00,VWS V14.01,2013-04-12 17:50:00,
2013-04-12 11:00:00,63.7,48.2,29.90,NNW,338,3.0,11.0,57,0.00,,CLR,0.00,751.00,VWS V14.01,2013-04-12 18:00:00,
2013-04-12 11:10:00,64.3,49.2,29.89,North,0,4.0,9.0,58,0.00,,CLR,0.00,771.00,VWS V14.01,2013-04-12 18:10:00,
2013-04-12 11:20:00,65.2,48.6,29.89,North,0,4.0,10.0,55,0.00,,CLR,0.00,791.00,VWS V14.01,2013-04-12 18:20:00,
2013-04-12 11:30:00,66.1,47.5,29.89,North,0,4.0,9.0,51,0.00,,CLR,0.00,804.00,VWS V14.01,2013-04-12 18:30:00,
2013-04-12 11:40:00,66.7,48.0,29.89,North,0,5.0,11.0,51,0.00,,CLR,0.00,822.00,VWS V14.01,2013-04-12 18:40:00,
2013-04-12 11:50:00,68.1,48.2,29.89,North,0,3.0,7.0,49,0.00,,CLR,0.00,843.00,VWS V14.01,2013-04-12 18:50:00,
2013-04-12 12:00:00,69.0,49.6,29.89,NE,45,2.0,7.0,50,0.00,,CLR,0.00,860.00,VWS V14.01,2013-04-12 19:00:00,
2013-04-12 12:10:00,69.7,49.2,29.88,North,0,2.0,7.0,48,0.00,,CLR,0.00,873.00,VWS V14.01,2013-04-12 19:10:00,
2013-04-12 12:20:00,70.0,48.3,29.88,North,0,4.0,10.0,46,0.00,,CLR,0.00,884.00,VWS V14.01,2013-04-12 19:20:00,
2013-04-12 12:30:00,70.7,48.3,29.87,NNE,22,2.0,5.0,45,0.00,,CLR,0.00,894.00,VWS V14.01,2013-04-12 19:30:00,
2013-04-12 12:40:00,71.5,48.5,29.87,NNE,22,1.0,7.0,44,0.00,,CLR,0.00,896.00,VWS V14.01,2013-04-12 19:40:00,
2013-04-12 12:50:00,72.6,48.8,29.87,NNE,22,1.0,6.0,43,0.00,,CLR,0.00,906.00,VWS V14.01,2013-04-12 19:50:00,
2013-04-12 13:00:00,73.4,50.2,29.86,NNW,338,0.0,5.0,44,0.00,,CLR,0.00,918.00,VWS V14.01,2013-04-12 20:00:00,
2013-04-12 13:10:00,74.0,49.5,29.86,NNW,338,1.0,5.0,42,0.00,,CLR,0.00,896.00,VWS V14.01,2013-04-12 20:10:00,
2013-04-12 13:20:00,74.6,50.0,29.85,NNW,338,1.0,5.0,42,0.00,,CLR,0.00,884.00,VWS V14.01,2013-04-12 20:20:00,
2013-04-12 13:30:00,75.2,50.6,29.85,West,270,1.0,6.0,42,0.00,,CLR,0.00,900.00,VWS V14.01,2013-04-12 20:30:00,
2013-04-12 13:40:00,75.6,50.9,29.85,SE,135,1.0,4.0,42,0.00,,CLR,0.00,905.00,VWS V14.01,2013-04-12 20:40:00,
2013-04-12 13:50:00,76.6,51.2,29.85,North,0,1.0,5.0,41,0.00,,CLR,0.00,886.00,VWS V14.01,2013-04-12 20:50:00,
2013-04-12 14:00:00,76.8,50.7,29.84,NNW,338,1.0,5.0,40,0.00,,CLR,0.00,893.00,VWS V14.01,2013-04-12 21:00:00,
2013-04-12 14:10:00,77.3,52.5,29.84,West,270,1.0,6.0,42,0.00,,CLR,0.00,879.00,VWS V14.01,2013-04-12 21:10:00,
2013-04-12 14:20:00,77.7,52.2,29.84,SW,225,1.0,7.0,41,0.00,,CLR,0.00,854.00,VWS V14.01,2013-04-12 21:20:00,
2013-04-12 14:30:00,78.5,52.9,29.84,North,0,3.0,8.0,41,0.00,,CLR,0.00,865.00,VWS V14.01,2013-04-12 21:30:00,
2013-04-12 14:40:00,78.3,51.3,29.83,NW,315,2.0,9.0,39,0.00,,CLR,0.00,849.00,VWS V14.01,2013-04-12 21:40:00,
2013-04-12 14:50:00,78.3,54.0,29.83,NW,315,2.0,10.0,43,0.00,,CLR,0.00,793.00,VWS V14.01,2013-04-12 21:50:00,
2013-04-12 15:00:00,78.8,51.8,29.83,North,0,4.0,12.0,39,0.00,,CLR,0.00,798.00,VWS V14.01,2013-04-12 22:00:00,
2013-04-12 15:10:00,79.2,50.0,29.82,West,270,6.0,14.0,36,0.00,,CLR,0.00,806.00,VWS V14.01,2013-04-12 22:10:00,
2013-04-12 15:20:00,79.4,49.4,29.82,NNW,338,5.0,12.0,35,0.00,,CLR,0.00,752.00,VWS V14.01,2013-04-12 22:20:00,
2013-04-12 15:30:00,79.0,47.5,29.82,NW,315,6.0,15.0,33,0.00,,CLR,0.00,666.00,VWS V14.01,2013-04-12 22:30:00,
2013-04-12 15:40:00,79.5,48.7,29.82,WSW,248,5.0,12.0,34,0.00,,CLR,0.00,745.00,VWS V14.01,2013-04-12 22:40:00,
2013-04-12 15:50:00,79.6,47.2,29.82,WSW,248,5.0,14.0,32,0.00,,CLR,0.00,692.00,VWS V14.01,2013-04-12 22:50:00,
2013-04-12 16:00:00,79.5,47.1,29.81,West,270,6.0,13.0,32,0.00,,CLR,0.00,685.00,VWS V14.01,2013-04-12 23:00:00,
2013-04-12 16:10:00,79.4,40.5,29.81,NNW,338,5.0,13.0,25,0.00,,CLR,0.00,688.00,VWS V14.01,2013-04-12 23:10:00,
2013-04-12 16:20:00,78.9,41.1,29.81,West,270,6.0,12.0,26,0.00,,CLR,0.00,676.00,VWS V14.01,2013-04-12 23:20:00,
2013-04-12 16:30:00,78.7,43.8,29.81,WSW,248,5.0,13.0,29,0.00,,CLR,0.00,633.00,VWS V14.01,2013-04-12 23:30:00,
2013-04-12 16:40:00,77.8,45.6,29.81,West,270,6.0,13.0,32,0.00,,CLR,0.00,525.00,VWS V14.01,2013-04-12 23:40:00,
2013-04-12 16:50:00,77.1,45.8,29.80,WSW,248,6.0,12.0,33,0.00,,CLR,0.00,488.00,VWS V14.01,2013-04-12 23:50:00,
2013-04-12 17:00:00,76.6,46.9,29.80,West,270,7.0,14.0,35,0.00,,CLR,0.00,477.00,VWS V14.01,2013-04-13 00:00:00,
2013-04-12 17:10:00,74.9,46.9,29.80,West,270,9.0,14.0,37,0.00,,CLR,0.00,241.00,VWS V14.01,2013-04-13 00:10:00,
2013-04-12 17:20:00,75.2,47.2,29.80,West,270,7.0,13.0,37,0.00,,CLR,0.00,456.00,VWS V14.01,2013-04-13 00:20:00,
2013-04-12 17:30:00,75.7,48.3,29.81,West,270,5.0,11.0,38,0.00,,CLR,0.00,469.00,VWS V14.01,2013-04-13 00:30:00,
2013-04-12 17:40:00,75.3,48.7,29.81,NNW,338,5.0,12.0,39,0.00,,CLR,0.00,422.00,VWS V14.01,2013-04-13 00:40:00,
2013-04-12 18:00:00,74.6,50.0,29.81,NW,315,4.0,13.0,42,0.00,,CLR,0.00,330.00,VWS V14.01,2013-04-13 01:00:00,
2013-04-12 18:30:00,72.5,48.8,29.81,West,270,6.0,11.0,43,0.00,,CLR,0.00,228.00,VWS V14.01,2013-04-13 01:30:00,
2013-04-12 18:40:00,71.6,48.6,29.81,West,270,5.0,12.0,44,0.00,,CLR,0.00,195.00,VWS V14.01,2013-04-13 01:40:00,
2013-04-12 18:50:00,70.7,47.7,29.81,West,270,6.0,12.0,44,0.00,,CLR,0.00,162.00,VWS V14.01,2013-04-13 01:50:00,
2013-04-12 19:00:00,69.7,46.8,29.81,West,270,5.0,11.0,44,0.00,,CLR,0.00,127.00,VWS V14.01,2013-04-13 02:00:00,
2013-04-12 19:10:00,68.5,46.3,29.82,West,270,5.0,11.0,45,0.00,,CLR,0.00,91.00,VWS V14.01,2013-04-13 02:10:00,
2013-04-12 19:20:00,67.1,45.1,29.82,West,270,5.0,13.0,45,0.00,,CLR,0.00,43.00,VWS V14.01,2013-04-13 02:20:00,
2013-04-12 19:30:00,65.5,44.8,29.82,West,270,5.0,12.0,47,0.00,,CLR,0.00,27.00,VWS V14.01,2013-04-13 02:30:00,
2013-04-12 19:40:00,64.5,44.4,29.82,West,270,4.0,10.0,48,0.00,,CLR,0.00,15.00,VWS V14.01,2013-04-13 02:40:00,
2013-04-12 19:50:00,63.9,43.8,29.82,NW,315,2.0,9.0,48,0.00,,CLR,0.00,4.00,VWS V14.01,2013-04-13 02:50:00,
2013-04-12 20:00:00,62.9,44.0,29.82,West,270,3.0,10.0,50,0.00,,CLR,0.00,0.00,VWS V14.01,2013-04-13 03:00:00,
2013-04-12 20:10:00,62.0,43.7,29.82,WNW,292,0.0,6.0,51,0.00,,CLR,0.00,0.00,VWS V14.01,2013-04-13 03:10:00,
2013-04-12 20:20:00,61.1,43.4,29.82,West,270,0.0,2.0,52,0.00,,CLR,0.00,0.00,VWS V14.01,2013-04-13 03:20:00,
2013-04-12 20:30:00,60.0,43.3,29.83,West,270,0.0,2.0,54,0.00,,CLR,0.00,0.00,VWS V14.01,2013-04-13 03:30:00,
2013-04-12 20:40:00,59.0,44.3,29.83,West,270,0.0,1.0,58,0.00,,CLR,0.00,0.00,VWS V14.01,2013-04-13 03:40:00,
2013-04-12 20:50:00,58.1,44.3,29.83,ENE,68,0.0,3.0,60,0.00,,CLR,0.00,0.00,VWS V14.01,2013-04-13 03:50:00,
2013-04-12 21:00:00,57.1,43.8,29.84,ENE,68,1.0,5.0,61,0.00,,CLR,0.00,0.00,VWS V14.01,2013-04-13 04:00:00,
2013-04-12 21:10:00,57.4,42.8,29.85,NE,45,0.0,3.0,58,0.00,,CLR,0.00,0.00,VWS V14.01,2013-04-13 04:10:00,
2013-04-12 21:20:00,57.8,42.2,29.85,NNE,22,0.0,3.0,56,0.00,,CLR,0.00,0.00,VWS V14.01,2013-04-13 04:20:00,
2013-04-12 21:30:00,58.5,41.5,29.86,NW,315,1.0,5.0,53,0.00,,CLR,0.00,0.00,VWS V14.01,2013-04-13 04:30:00,
2013-04-12 21:40:00,58.4,41.8,29.86,NW,315,0.0,1.0,54,0.00,,CLR,0.00,0.00,VWS V14.01,2013-04-13 04:40:00,
2013-04-12 21:50:00,57.6,41.1,29.86,NW,315,0.0,2.0,54,0.00,,CLR,0.00,0.00,VWS V14.01,2013-04-13 04:50:00,
2013-04-12 22:00:00,57.1,41.1,29.87,NNW,338,0.0,3.0,55,0.00,,CLR,0.00,0.00,VWS V14.01,2013-04-13 05:00:00,
2013-04-12 22:10:00,56.7,40.7,29.87,NNW,338,1.0,3.0,55,0.00,,CLR,0.00,0.00,VWS V14.01,2013-04-13 05:10:00,
2013-04-12 22:20:00,56.8,40.3,29.87,West,270,2.0,5.0,54,0.00,,CLR,0.00,0.00,VWS V14.01,2013-04-13 05:20:00,
2013-04-12 22:30:00,56.5,40.5,29.87,West,270,0.0,5.0,55,0.00,,CLR,0.00,0.00,VWS V14.01,2013-04-13 05:30:00,
2013-04-12 22:40:00,55.4,40.4,29.88,NNE,22,0.0,4.0,57,0.00,,CLR,0.00,0.00,VWS V14.01,2013-04-13 05:40:00,
2013-04-12 22:50:00,54.5,40.9,29.88,NNE,22,0.0,3.0,60,0.00,,CLR,0.00,0.00,VWS V14.01,2013-04-13 05:50:00,
2013-04-12 23:00:00,53.5,40.8,29.87,NE,45,0.0,3.0,62,0.00,,CLR,0.00,0.00,VWS V14.01,2013-04-13 06:00:00,
2013-04-12 23:10:00,53.3,39.8,29.87,NE,45,0.0,0.0,60,0.00,,CLR,0.00,0.00,VWS V14.01,2013-04-13 06:10:00,
2013-04-12 23:20:00,53.2,40.5,29.87,NE,45,0.0,2.0,62,0.00,,CLR,0.00,0.00,VWS V14.01,2013-04-13 06:20:00,
2013-04-12 23:30:00,53.0,40.3,29.87,ESE,112,1.0,3.0,62,0.00,,CLR,0.00,0.00,VWS V14.01,2013-04-13 06:30:00,
2013-04-12 23:40:00,52.6,40.0,29.88,ESE,112,0.0,3.0,62,0.00,,CLR,0.00,0.00,VWS V14.01,2013-04-13 06:40:00,
2013-04-12 23:50:00,54.4,40.4,29.87,NNW,338,3.0,9.0,59,0.00,,CLR,0.00,0.00,VWS V14.01,2013-04-13 06:50:00,